sensor_id;sensor_type;location;lat;lon;timestamp;pressure;altitude;pressure_sealevel;temperature;humidity
11487;BME280;10510;47.942;9.442;2023-12-28T00:01:07;94819.56;;;3.06;100.00
11487;BME280;10510;47.942;9.442;2023-12-28T00:03:08;94823.34;;;3.02;100.00
11487;BME280;10510;47.942;9.442;2023-12-28T00:05:08;94823.63;;;2.99;100.00
11487;BME280;10510;47.942;9.442;2023-12-28T00:07:08;94824.84;;;2.94;100.00
11487;BME280;10510;47.942;9.442;2023-12-28T00:09:08;94838.56;;;2.95;100.00
11487;BME280;10510;47.942;9.442;2023-12-28T00:11:10;94842.50;;;2.99;100.00
11487;BME280;10510;47.942;9.442;2023-12-28T00:13:10;94845.78;;;3.01;100.00
11487;BME280;10510;47.942;9.442;2023-12-28T00:15:10;94839.81;;;3.01;100.00
11487;BME280;10510;47.942;9.442;2023-12-28T00:17:10;94842.41;;;3.01;100.00
11487;BME280;10510;47.942;9.442;2023-12-28T00:19:11;94836.28;;;3.02;100.00
11487;BME280;10510;47.942;9.442;2023-12-28T00:21:11;94840.09;;;3.07;100.00
11487;BME280;10510;47.942;9.442;2023-12-28T00:23:11;94848.53;;;3.09;100.00
11487;BME280;10510;47.942;9.442;2023-12-28T00:25:11;94836.72;;;3.16;100.00
11487;BME280;10510;47.942;9.442;2023-12-28T00:27:12;94841.88;;;3.26;100.00
11487;BME280;10510;47.942;9.442;2023-12-28T00:29:12;94839.19;;;3.28;100.00
11487;BME280;10510;47.942;9.442;2023-12-28T00:31:12;94850.75;;;3.33;100.00
11487;BME280;10510;47.942;9.442;2023-12-28T00:33:13;94858.78;;;3.40;100.00
11487;BME280;10510;47.942;9.442;2023-12-28T00:35:13;94854.31;;;3.52;100.00
11487;BME280;10510;47.942;9.442;2023-12-28T00:37:13;94843.56;;;3.56;100.00
11487;BME280;10510;47.942;9.442;2023-12-28T00:39:13;94840.97;;;3.56;100.00
11487;BME280;10510;47.942;9.442;2023-12-28T00:41:15;94848.84;;;3.55;100.00
11487;BME280;10510;47.942;9.442;2023-12-28T00:43:15;94835.81;;;3.56;100.00
11487;BME280;10510;47.942;9.442;2023-12-28T00:45:15;94841.91;;;3.55;100.00
11487;BME280;10510;47.942;9.442;2023-12-28T00:47:16;94851.44;;;3.55;100.00
11487;BME280;10510;47.942;9.442;2023-12-28T00:49:16;94851.72;;;3.52;100.00
11487;BME280;10510;47.942;9.442;2023-12-28T00:51:16;94855.25;;;3.51;100.00
11487;BME280;10510;47.942;9.442;2023-12-28T00:53:16;94851.88;;;3.50;100.00
11487;BME280;10510;47.942;9.442;2023-12-28T00:55:17;94855.38;;;3.49;100.00
11487;BME280;10510;47.942;9.442;2023-12-28T00:57:17;94857.31;;;3.47;100.00
11487;BME280;10510;47.942;9.442;2023-12-28T00:59:17;94863.41;;;3.46;100.00
11487;BME280;10510;47.942;9.442;2023-12-28T01:01:18;94869.53;;;3.45;100.00
11487;BME280;10510;47.942;9.442;2023-12-28T01:03:18;94873.06;;;3.44;100.00
11487;BME280;10510;47.942;9.442;2023-12-28T01:05:18;94866.53;;;3.40;100.00
11487;BME280;10510;47.942;9.442;2023-12-28T01:07:21;94868.16;;;3.41;100.00
11487;BME280;10510;47.942;9.442;2023-12-28T01:09:21;94871.56;;;3.41;100.00
11487;BME280;10510;47.942;9.442;2023-12-28T01:11:21;94868.16;;;3.41;100.00
11487;BME280;10510;47.942;9.442;2023-12-28T01:13:22;94873.47;;;3.39;100.00
11487;BME280;10510;47.942;9.442;2023-12-28T01:15:22;94878.38;;;3.42;100.00
11487;BME280;10510;47.942;9.442;2023-12-28T01:17:22;94869.38;;;3.47;100.00
11487;BME280;10510;47.942;9.442;2023-12-28T01:19:22;94873.63;;;3.48;100.00
11487;BME280;10510;47.942;9.442;2023-12-28T01:21:23;94866.25;;;3.43;100.00
11487;BME280;10510;47.942;9.442;2023-12-28T01:23:24;94869.00;;;3.41;100.00
11487;BME280;10510;47.942;9.442;2023-12-28T01:25:25;94869.53;;;3.35;100.00
11487;BME280;10510;47.942;9.442;2023-12-28T01:27:25;94873.31;;;3.31;100.00
11487;BME280;10510;47.942;9.442;2023-12-28T01:29:25;94864.06;;;3.29;100.00
11487;BME280;10510;47.942;9.442;2023-12-28T01:31:25;94870.56;;;3.23;100.00
11487;BME280;10510;47.942;9.442;2023-12-28T01:33:26;94866.34;;;3.12;100.00
11487;BME280;10510;47.942;9.442;2023-12-28T01:35:26;94867.81;;;3.05;100.00
11487;BME280;10510;47.942;9.442;2023-12-28T01:37:26;94868.22;;;3.01;100.00
11487;BME280;10510;47.942;9.442;2023-12-28T01:39:30;94865.06;;;2.97;100.00
11487;BME280;10510;47.942;9.442;2023-12-28T01:41:30;94872.97;;;3.05;100.00
11487;BME280;10510;47.942;9.442;2023-12-28T01:43:31;94881.44;;;3.17;100.00
11487;BME280;10510;47.942;9.442;2023-12-28T01:45:31;94874.81;;;3.24;100.00
11487;BME280;10510;47.942;9.442;2023-12-28T01:47:31;94885.69;;;3.28;100.00
11487;BME280;10510;47.942;9.442;2023-12-28T01:49:33;94886.50;;;3.28;100.00
11487;BME280;10510;47.942;9.442;2023-12-28T01:51:34;94887.31;;;3.29;100.00
11487;BME280;10510;47.942;9.442;2023-12-28T01:53:36;94887.31;;;3.29;100.00
11487;BME280;10510;47.942;9.442;2023-12-28T01:55:36;94885.69;;;3.28;100.00
11487;BME280;10510;47.942;9.442;2023-12-28T01:57:37;94877.25;;;3.26;100.00
11487;BME280;10510;47.942;9.442;2023-12-28T01:59:38;94881.84;;;3.22;100.00
11487;BME280;10510;47.942;9.442;2023-12-28T02:01:38;94883.75;;;3.20;100.00
11487;BME280;10510;47.942;9.442;2023-12-28T02:03:38;94895.03;;;3.19;100.00
11487;BME280;10510;47.942;9.442;2023-12-28T02:05:39;94890.78;;;3.08;100.00
11487;BME280;10510;47.942;9.442;2023-12-28T02:07:39;94885.88;;;2.95;100.00
11487;BME280;10510;47.942;9.442;2023-12-28T02:09:40;94879.16;;;2.83;100.00
11487;BME280;10510;47.942;9.442;2023-12-28T02:11:40;94882.25;;;2.77;100.00
11487;BME280;10510;47.942;9.442;2023-12-28T02:13:40;94880.88;;;2.73;100.00
11487;BME280;10510;47.942;9.442;2023-12-28T02:15:42;94880.88;;;2.73;100.00
11487;BME280;10510;47.942;9.442;2023-12-28T02:17:47;94879.28;;;2.82;100.00
11487;BME280;10510;47.942;9.442;2023-12-28T02:19:51;94874.16;;;2.91;100.00
11487;BME280;10510;47.942;9.442;2023-12-28T02:21:54;94877.72;;;3.00;100.00
11487;BME280;10510;47.942;9.442;2023-12-28T02:23:55;94891.38;;;3.12;100.00
11487;BME280;10510;47.942;9.442;2023-12-28T02:25:55;94887.56;;;3.16;100.00
11487;BME280;10510;47.942;9.442;2023-12-28T02:27:55;94888.25;;;3.18;100.00
11487;BME280;10510;47.942;9.442;2023-12-28T02:29:56;94888.09;;;3.19;100.00
11487;BME280;10510;47.942;9.442;2023-12-28T02:32:01;94895.75;;;3.21;100.00
11487;BME280;10510;47.942;9.442;2023-12-28T02:34:10;94894.09;;;3.20;100.00
11487;BME280;10510;47.942;9.442;2023-12-28T02:36:13;94883.63;;;3.22;100.00
11487;BME280;10510;47.942;9.442;2023-12-28T02:38:16;94881.97;;;3.21;100.00
11487;BME280;10510;47.942;9.442;2023-12-28T02:40:18;94890.69;;;3.19;100.00
11487;BME280;10510;47.942;9.442;2023-12-28T02:42:19;94892.56;;;3.17;100.00
11487;BME280;10510;47.942;9.442;2023-12-28T02:44:19;94901.03;;;3.19;100.00
11487;BME280;10510;47.942;9.442;2023-12-28T02:46:19;94905.09;;;3.22;100.00
11487;BME280;10510;47.942;9.442;2023-12-28T02:48:20;94901.72;;;3.22;100.00
11487;BME280;10510;47.942;9.442;2023-12-28T02:50:20;94902.78;;;3.19;100.00
11487;BME280;10510;47.942;9.442;2023-12-28T02:52:20;94911.75;;;3.15;100.00
11487;BME280;10510;47.942;9.442;2023-12-28T02:54:21;94914.47;;;3.13;100.00
11487;BME280;10510;47.942;9.442;2023-12-28T02:56:21;94912.69;;;3.14;100.00
11487;BME280;10510;47.942;9.442;2023-12-28T02:58:21;94921.25;;;3.14;100.00
11487;BME280;10510;47.942;9.442;2023-12-28T03:00:21;94908.75;;;3.10;100.00
11487;BME280;10510;47.942;9.442;2023-12-28T03:02:22;94917.13;;;3.02;100.00
11487;BME280;10510;47.942;9.442;2023-12-28T03:04:22;94925.28;;;2.98;100.00
11487;BME280;10510;47.942;9.442;2023-12-28T03:06:23;94922.66;;;2.88;100.00
11487;BME280;10510;47.942;9.442;2023-12-28T03:08:23;94924.63;;;2.75;100.00
11487;BME280;10510;47.942;9.442;2023-12-28T03:10:23;94921.84;;;2.57;100.00
11487;BME280;10510;47.942;9.442;2023-12-28T03:12:24;94923.91;;;2.42;100.00
11487;BME280;10510;47.942;9.442;2023-12-28T03:14:24;94911.78;;;2.33;100.00
11487;BME280;10510;47.942;9.442;2023-12-28T03:16:24;94908.09;;;2.35;100.00
11487;BME280;10510;47.942;9.442;2023-12-28T03:18:24;94905.41;;;2.37;100.00
11487;BME280;10510;47.942;9.442;2023-12-28T03:20:25;94897.88;;;2.45;100.00
11487;BME280;10510;47.942;9.442;2023-12-28T03:22:25;94894.25;;;2.57;100.00
11487;BME280;10510;47.942;9.442;2023-12-28T03:24:25;94898.19;;;2.61;100.00
11487;BME280;10510;47.942;9.442;2023-12-28T03:26:25;94899.03;;;2.62;100.00
11487;BME280;10510;47.942;9.442;2023-12-28T03:28:26;94903.25;;;2.63;100.00
11487;BME280;10510;47.942;9.442;2023-12-28T03:30:26;94903.09;;;2.64;100.00
11487;BME280;10510;47.942;9.442;2023-12-28T03:32:26;94919.56;;;2.63;100.00
11487;BME280;10510;47.942;9.442;2023-12-28T03:34:27;94916.97;;;2.63;100.00
11487;BME280;10510;47.942;9.442;2023-12-28T03:36:29;94910.59;;;2.67;100.00
11487;BME280;10510;47.942;9.442;2023-12-28T03:38:29;94916.75;;;2.76;100.00
11487;BME280;10510;47.942;9.442;2023-12-28T03:40:29;94913.91;;;2.79;100.00
11487;BME280;10510;47.942;9.442;2023-12-28T03:42:29;94911.91;;;2.83;100.00
11487;BME280;10510;47.942;9.442;2023-12-28T03:44:30;94911.66;;;2.86;100.00
11487;BME280;10510;47.942;9.442;2023-12-28T03:46:30;94905.28;;;2.90;100.00
11487;BME280;10510;47.942;9.442;2023-12-28T03:48:30;94911.13;;;2.92;100.00
11487;BME280;10510;47.942;9.442;2023-12-28T03:50:31;94908.41;;;2.93;100.00
11487;BME280;10510;47.942;9.442;2023-12-28T03:52:31;94905.16;;;2.91;100.00
11487;BME280;10510;47.942;9.442;2023-12-28T03:54:32;94908.94;;;2.87;100.00
11487;BME280;10510;47.942;9.442;2023-12-28T03:56:32;94904.84;;;2.85;100.00
11487;BME280;10510;47.942;9.442;2023-12-28T03:58:35;94904.28;;;2.81;100.00
11487;BME280;10510;47.942;9.442;2023-12-28T04:00:36;94900.19;;;2.79;100.00
11487;BME280;10510;47.942;9.442;2023-12-28T04:02:36;94906.16;;;2.79;100.00
11487;BME280;10510;47.942;9.442;2023-12-28T04:04:36;94908.75;;;2.79;100.00
11487;BME280;10510;47.942;9.442;2023-12-28T04:06:37;94907.13;;;2.78;100.00
11487;BME280;10510;47.942;9.442;2023-12-28T04:08:38;94919.91;;;2.80;100.00
11487;BME280;10510;47.942;9.442;2023-12-28T04:10:38;94902.78;;;2.79;100.00
11487;BME280;10510;47.942;9.442;2023-12-28T04:12:38;94913.25;;;2.77;100.00
11487;BME280;10510;47.942;9.442;2023-12-28T04:14:39;94918.41;;;2.77;100.00
11487;BME280;10510;47.942;9.442;2023-12-28T04:16:39;94911.47;;;2.78;100.00
11487;BME280;10510;47.942;9.442;2023-12-28T04:18:42;94918.16;;;2.80;100.00
11487;BME280;10510;47.942;9.442;2023-12-28T04:20:43;94906.16;;;2.79;100.00
11487;BME280;10510;47.942;9.442;2023-12-28T04:22:44;94908.09;;;2.77;100.00
11487;BME280;10510;47.942;9.442;2023-12-28T04:24:45;94917.44;;;2.78;100.00
11487;BME280;10510;47.942;9.442;2023-12-28T04:26:45;94914.75;;;2.80;100.00
11487;BME280;10510;47.942;9.442;2023-12-28T04:28:45;94924.13;;;2.81;100.00
11487;BME280;10510;47.942;9.442;2023-12-28T04:30:46;94917.88;;;2.83;100.00
11487;BME280;10510;47.942;9.442;2023-12-28T04:32:47;94911.06;;;2.82;100.00
11487;BME280;10510;47.942;9.442;2023-12-28T04:34:47;94917.06;;;2.83;100.00
11487;BME280;10510;47.942;9.442;2023-12-28T04:36:47;94925.75;;;2.82;100.00
11487;BME280;10510;47.942;9.442;2023-12-28T04:38:49;94912.28;;;2.78;100.00
11487;BME280;10510;47.942;9.442;2023-12-28T04:40:49;94921.25;;;2.74;100.00
11487;BME280;10510;47.942;9.442;2023-12-28T04:42:49;94910.22;;;2.72;100.00
11487;BME280;10510;47.942;9.442;2023-12-28T04:44:49;94912.66;;;2.73;100.00
11487;BME280;10510;47.942;9.442;2023-12-28T04:46:50;94901.00;;;2.79;100.00
11487;BME280;10510;47.942;9.442;2023-12-28T04:48:50;94904.97;;;2.83;100.00
11487;BME280;10510;47.942;9.442;2023-12-28T04:50:50;94905.28;;;2.90;100.00
11487;BME280;10510;47.942;9.442;2023-12-28T04:52:51;94910.97;;;2.93;100.00
11487;BME280;10510;47.942;9.442;2023-12-28T04:54:51;94905.81;;;2.93;100.00
11487;BME280;10510;47.942;9.442;2023-12-28T04:56:51;94895.50;;;2.93;100.00
11487;BME280;10510;47.942;9.442;2023-12-28T04:58:51;94900.28;;;2.98;100.00
11487;BME280;10510;47.942;9.442;2023-12-28T05:00:52;94893.22;;;3.00;100.00
11487;BME280;10510;47.942;9.442;2023-12-28T05:02:52;94891.56;;;2.99;100.00
11487;BME280;10510;47.942;9.442;2023-12-28T05:04:52;94895.28;;;3.06;100.00
11487;BME280;10510;47.942;9.442;2023-12-28T05:06:53;94891.03;;;3.05;100.00
11487;BME280;10510;47.942;9.442;2023-12-28T05:08:53;94901.81;;;3.10;100.00
11487;BME280;10510;47.942;9.442;2023-12-28T05:10:53;94896.75;;;3.09;100.00
11487;BME280;10510;47.942;9.442;2023-12-28T05:12:53;94897.88;;;3.16;100.00
11487;BME280;10510;47.942;9.442;2023-12-28T05:14:54;94900.50;;;3.26;100.00
11487;BME280;10510;47.942;9.442;2023-12-28T05:16:54;94897.25;;;3.33;100.00
11487;BME280;10510;47.942;9.442;2023-12-28T05:18:54;94903.41;;;3.42;100.00
11487;BME280;10510;47.942;9.442;2023-12-28T05:20:55;94906.41;;;3.47;100.00
11487;BME280;10510;47.942;9.442;2023-12-28T05:22:55;94904.63;;;3.57;100.00
11487;BME280;10510;47.942;9.442;2023-12-28T05:24:55;94894.31;;;3.67;100.00
11487;BME280;10510;47.942;9.442;2023-12-28T05:26:55;94892.28;;;3.71;100.00
11487;BME280;10510;47.942;9.442;2023-12-28T05:28:56;94897.19;;;3.74;100.00
11487;BME280;10510;47.942;9.442;2023-12-28T05:30:56;94896.22;;;3.84;100.00
11487;BME280;10510;47.942;9.442;2023-12-28T05:32:59;94891.88;;;3.95;100.00
11487;BME280;10510;47.942;9.442;2023-12-28T05:34:59;94892.56;;;4.06;100.00
11487;BME280;10510;47.942;9.442;2023-12-28T05:36:59;94889.53;;;4.11;100.00
11487;BME280;10510;47.942;9.442;2023-12-28T05:38:59;94888.59;;;4.12;100.00
11487;BME280;10510;47.942;9.442;2023-12-28T05:41:00;94891.03;;;4.14;100.00
11487;BME280;10510;47.942;9.442;2023-12-28T05:43:00;94899.50;;;4.16;100.00
11487;BME280;10510;47.942;9.442;2023-12-28T05:45:00;94890.50;;;4.20;100.00
11487;BME280;10510;47.942;9.442;2023-12-28T05:47:00;94889.28;;;4.24;100.00
11487;BME280;10510;47.942;9.442;2023-12-28T05:49:01;94889.00;;;4.27;100.00
11487;BME280;10510;47.942;9.442;2023-12-28T05:51:01;94892.53;;;4.26;100.00
11487;BME280;10510;47.942;9.442;2023-12-28T05:53:01;94892.78;;;4.23;100.00
11487;BME280;10510;47.942;9.442;2023-12-28T05:55:02;94892.41;;;4.18;100.00
11487;BME280;10510;47.942;9.442;2023-12-28T05:57:04;94891.84;;;4.14;100.00
11487;BME280;10510;47.942;9.442;2023-12-28T05:59:04;94892.41;;;4.18;100.00
11487;BME280;10510;47.942;9.442;2023-12-28T06:01:04;94897.16;;;4.22;100.00
11487;BME280;10510;47.942;9.442;2023-12-28T06:03:08;94899.22;;;4.19;100.00
11487;BME280;10510;47.942;9.442;2023-12-28T06:05:08;94896.75;;;4.17;100.00
11487;BME280;10510;47.942;9.442;2023-12-28T06:07:08;94882.88;;;4.18;100.00
11487;BME280;10510;47.942;9.442;2023-12-28T06:09:08;94892.41;;;4.18;100.00
11487;BME280;10510;47.942;9.442;2023-12-28T06:11:09;94894.59;;;4.13;100.00
11487;BME280;10510;47.942;9.442;2023-12-28T06:13:09;94887.66;;;4.13;100.00
11487;BME280;10510;47.942;9.442;2023-12-28T06:15:09;94889.53;;;4.11;100.00
11487;BME280;10510;47.942;9.442;2023-12-28T06:17:10;94894.47;;;4.04;100.00
11487;BME280;10510;47.942;9.442;2023-12-28T06:19:10;94889.16;;;3.96;100.00
11487;BME280;10510;47.942;9.442;2023-12-28T06:21:12;94880.31;;;3.89;100.00
11487;BME280;10510;47.942;9.442;2023-12-28T06:23:12;94887.22;;;3.79;100.00
11487;BME280;10510;47.942;9.442;2023-12-28T06:25:13;94887.13;;;3.71;100.00
11487;BME280;10510;47.942;9.442;2023-12-28T06:27:13;94898.94;;;3.63;100.00
11487;BME280;10510;47.942;9.442;2023-12-28T06:29:13;94885.03;;;3.55;100.00
11487;BME280;10510;47.942;9.442;2023-12-28T06:31:14;94887.22;;;3.50;100.00
11487;BME280;10510;47.942;9.442;2023-12-28T06:33:14;94888.97;;;3.49;100.00
11487;BME280;10510;47.942;9.442;2023-12-28T06:35:16;94890.63;;;3.50;100.00
11487;BME280;10510;47.942;9.442;2023-12-28T06:37:16;94892.25;;;3.51;100.00
11487;BME280;10510;47.942;9.442;2023-12-28T06:39:17;94897.97;;;3.55;100.00
11487;BME280;10510;47.942;9.442;2023-12-28T06:41:17;94897.00;;;3.56;100.00
11487;BME280;10510;47.942;9.442;2023-12-28T06:43:18;94895.25;;;3.56;100.00
11487;BME280;10510;47.942;9.442;2023-12-28T06:45:18;94893.34;;;3.58;100.00
11487;BME280;10510;47.942;9.442;2023-12-28T06:47:18;94901.78;;;3.60;100.00
11487;BME280;10510;47.942;9.442;2023-12-28T06:49:18;94896.22;;;3.65;100.00
11487;BME280;10510;47.942;9.442;2023-12-28T06:51:19;94897.03;;;3.66;100.00
11487;BME280;10510;47.942;9.442;2023-12-28T06:53:20;94902.22;;;3.66;100.00
11487;BME280;10510;47.942;9.442;2023-12-28T06:55:20;94906.69;;;3.63;100.00
11487;BME280;10510;47.942;9.442;2023-12-28T06:57:21;94912.81;;;3.62;100.00
11487;BME280;10510;47.942;9.442;2023-12-28T06:59:21;94910.91;;;3.64;100.00
11487;BME280;10510;47.942;9.442;2023-12-28T07:01:21;94905.59;;;3.66;100.00
11487;BME280;10510;47.942;9.442;2023-12-28T07:03:21;94907.50;;;3.64;100.00
11487;BME280;10510;47.942;9.442;2023-12-28T07:05:22;94913.75;;;3.61;100.00
11487;BME280;10510;47.942;9.442;2023-12-28T07:07:22;94911.44;;;3.58;100.00
11487;BME280;10510;47.942;9.442;2023-12-28T07:09:22;94916.06;;;3.55;100.00
11487;BME280;10510;47.942;9.442;2023-12-28T07:11:22;94917.03;;;3.54;100.00
11487;BME280;10510;47.942;9.442;2023-12-28T07:13:23;94929.25;;;3.52;100.00
11487;BME280;10510;47.942;9.442;2023-12-28T07:15:23;94931.41;;;3.47;100.00
11487;BME280;10510;47.942;9.442;2023-12-28T07:17:23;94922.41;;;3.41;100.00
11487;BME280;10510;47.942;9.442;2023-12-28T07:19:23;94918.47;;;3.37;100.00
11487;BME280;10510;47.942;9.442;2023-12-28T07:21:24;94926.59;;;3.32;100.00
11487;BME280;10510;47.942;9.442;2023-12-28T07:23:24;94919.28;;;3.28;100.00
11487;BME280;10510;47.942;9.442;2023-12-28T07:25:24;94925.50;;;3.25;100.00
11487;BME280;10510;47.942;9.442;2023-12-28T07:27:25;94936.00;;;3.24;100.00
11487;BME280;10510;47.942;9.442;2023-12-28T07:29:25;94940.31;;;3.23;100.00
11487;BME280;10510;47.942;9.442;2023-12-28T07:31:26;94938.13;;;3.18;100.00
11487;BME280;10510;47.942;9.442;2023-12-28T07:33:26;94938.53;;;3.14;100.00
11487;BME280;10510;47.942;9.442;2023-12-28T07:35:27;94937.00;;;3.11;100.00
11487;BME280;10510;47.942;9.442;2023-12-28T07:37:27;94930.91;;;3.12;100.00
11487;BME280;10510;47.942;9.442;2023-12-28T07:39:27;94925.34;;;3.17;100.00
11487;BME280;10510;47.942;9.442;2023-12-28T07:41:27;94936.91;;;3.23;100.00
11487;BME280;10510;47.942;9.442;2023-12-28T07:43:28;94924.88;;;3.33;100.00
11487;BME280;10510;47.942;9.442;2023-12-28T07:45:28;94929.22;;;3.42;100.00
11487;BME280;10510;47.942;9.442;2023-12-28T07:47:29;94931.03;;;3.51;100.00
11487;BME280;10510;47.942;9.442;2023-12-28T07:49:30;94933.63;;;3.61;100.00
11487;BME280;10510;47.942;9.442;2023-12-28T07:51:31;94926.72;;;3.71;100.00
11487;BME280;10510;47.942;9.442;2023-12-28T07:53:31;94928.47;;;3.80;100.00
11487;BME280;10510;47.942;9.442;2023-12-28T07:55:31;94927.13;;;3.86;100.00
11487;BME280;10510;47.942;9.442;2023-12-28T07:57:31;94930.38;;;3.88;100.00
11487;BME280;10510;47.942;9.442;2023-12-28T07:59:32;94919.75;;;3.91;100.00
11487;BME280;10510;47.942;9.442;2023-12-28T08:01:32;94920.44;;;3.93;100.00
11487;BME280;10510;47.942;9.442;2023-12-28T08:03:33;94923.44;;;3.98;100.00
11487;BME280;10510;47.942;9.442;2023-12-28T08:05:33;94921.28;;;4.03;100.00
11487;BME280;10510;47.942;9.442;2023-12-28T08:07:33;94925.91;;;4.09;100.00
11487;BME280;10510;47.942;9.442;2023-12-28T08:09:34;94926.28;;;4.15;100.00
11487;BME280;10510;47.942;9.442;2023-12-28T08:11:35;94928.09;;;4.24;100.00
11487;BME280;10510;47.942;9.442;2023-12-28T08:13:35;94923.97;;;4.31;100.00
11487;BME280;10510;47.942;9.442;2023-12-28T08:15:35;94921.53;;;4.39;100.00
11487;BME280;10510;47.942;9.442;2023-12-28T08:17:36;94919.72;;;4.49;100.00
11487;BME280;10510;47.942;9.442;2023-12-28T08:19:36;94915.09;;;4.63;100.00
11487;BME280;10510;47.942;9.442;2023-12-28T08:21:36;94911.50;;;4.73;100.00
11487;BME280;10510;47.942;9.442;2023-12-28T08:23:36;94904.38;;;4.85;100.00
11487;BME280;10510;47.942;9.442;2023-12-28T08:25:37;94907.59;;;4.97;100.00
11487;BME280;10510;47.942;9.442;2023-12-28T08:27:37;94899.34;;;5.11;100.00
11487;BME280;10510;47.942;9.442;2023-12-28T08:29:39;94902.00;;;5.29;100.00
11487;BME280;10510;47.942;9.442;2023-12-28T08:31:40;94905.19;;;5.51;100.00
11487;BME280;10510;47.942;9.442;2023-12-28T08:33:41;94914.88;;;5.66;100.00
11487;BME280;10510;47.942;9.442;2023-12-28T08:35:41;94914.38;;;5.81;100.00
11487;BME280;10510;47.942;9.442;2023-12-28T08:37:41;94925.25;;;5.94;100.00
11487;BME280;10510;47.942;9.442;2023-12-28T08:39:41;94931.41;;;6.11;100.00
11487;BME280;10510;47.942;9.442;2023-12-28T08:41:41;94936.53;;;6.39;100.00
11487;BME280;10510;47.942;9.442;2023-12-28T08:43:42;94931.13;;;6.58;100.00
11487;BME280;10510;47.942;9.442;2023-12-28T08:45:42;94921.31;;;6.70;100.00
11487;BME280;10510;47.942;9.442;2023-12-28T08:47:42;94918.50;;;6.63;100.00
11487;BME280;10510;47.942;9.442;2023-12-28T08:49:42;94923.19;;;6.59;100.00
11487;BME280;10510;47.942;9.442;2023-12-28T08:51:43;94919.94;;;6.57;100.00
11487;BME280;10510;47.942;9.442;2023-12-28T08:53:43;94923.03;;;6.61;100.00
11487;BME280;10510;47.942;9.442;2023-12-28T08:55:43;94930.38;;;6.66;100.00
11487;BME280;10510;47.942;9.442;2023-12-28T08:57:44;94937.25;;;6.75;100.00
11487;BME280;10510;47.942;9.442;2023-12-28T08:59:44;94929.97;;;6.78;100.00
11487;BME280;10510;47.942;9.442;2023-12-28T09:01:44;94925.94;;;6.84;100.00
11487;BME280;10510;47.942;9.442;2023-12-28T09:03:44;94935.59;;;6.92;100.00
11487;BME280;10510;47.942;9.442;2023-12-28T09:05:45;94935.47;;;7.01;100.00
11487;BME280;10510;47.942;9.442;2023-12-28T09:07:45;94931.75;;;7.04;100.00
11487;BME280;10510;47.942;9.442;2023-12-28T09:09:46;94931.44;;;7.07;100.00
11487;BME280;10510;47.942;9.442;2023-12-28T09:11:46;94927.25;;;7.14;100.00
11487;BME280;10510;47.942;9.442;2023-12-28T09:13:46;94930.69;;;7.15;100.00
11487;BME280;10510;47.942;9.442;2023-12-28T09:15:46;94934.56;;;7.45;100.00
11487;BME280;10510;47.942;9.442;2023-12-28T09:17:47;94929.50;;;7.43;100.00
11487;BME280;10510;47.942;9.442;2023-12-28T09:19:47;94926.66;;;7.28;100.00
11487;BME280;10510;47.942;9.442;2023-12-28T09:21:48;94930.19;;;7.19;100.00
11487;BME280;10510;47.942;9.442;2023-12-28T09:23:48;94940.41;;;7.13;100.00
11487;BME280;10510;47.942;9.442;2023-12-28T09:25:48;94941.97;;;7.05;100.00
11487;BME280;10510;47.942;9.442;2023-12-28T09:27:49;94943.13;;;7.03;100.00
11487;BME280;10510;47.942;9.442;2023-12-28T09:29:49;94951.88;;;7.02;100.00
11487;BME280;10510;47.942;9.442;2023-12-28T09:31:49;94939.69;;;7.02;100.00
11487;BME280;10510;47.942;9.442;2023-12-28T09:33:50;94948.97;;;7.05;100.00
11487;BME280;10510;47.942;9.442;2023-12-28T09:35:50;94946.38;;;7.05;100.00
11487;BME280;10510;47.942;9.442;2023-12-28T09:37:50;94943.78;;;7.05;100.00
11487;BME280;10510;47.942;9.442;2023-12-28T09:39:50;94949.78;;;7.05;100.00
11487;BME280;10510;47.942;9.442;2023-12-28T09:41:59;94950.31;;;7.09;100.00
11487;BME280;10510;47.942;9.442;2023-12-28T09:44:10;94946.88;;;7.09;100.00
11487;BME280;10510;47.942;9.442;2023-12-28T09:46:11;94954.66;;;7.09;100.00
11487;BME280;10510;47.942;9.442;2023-12-28T09:48:12;94957.25;;;7.09;100.00
11487;BME280;10510;47.942;9.442;2023-12-28T09:50:12;94956.75;;;7.05;100.00
11487;BME280;10510;47.942;9.442;2023-12-28T09:52:14;94957.25;;;7.00;100.00
11487;BME280;10510;47.942;9.442;2023-12-28T09:54:15;94950.06;;;6.94;100.00
11487;BME280;10510;47.942;9.442;2023-12-28T09:56:16;94949.53;;;6.91;100.00
11487;BME280;10510;47.942;9.442;2023-12-28T09:58:17;94946.72;;;6.84;100.00
11487;BME280;10510;47.942;9.442;2023-12-28T10:00:19;94935.03;;;6.80;100.00
11487;BME280;10510;47.942;9.442;2023-12-28T10:02:19;94933.38;;;6.79;100.00
11487;BME280;10510;47.942;9.442;2023-12-28T10:04:19;94937.09;;;6.76;100.00
11487;BME280;10510;47.942;9.442;2023-12-28T10:06:20;94926.88;;;6.75;100.00
11487;BME280;10510;47.942;9.442;2023-12-28T10:08:21;94918.41;;;6.73;100.00
11487;BME280;10510;47.942;9.442;2023-12-28T10:10:21;94927.00;;;6.73;100.00
11487;BME280;10510;47.942;9.442;2023-12-28T10:12:22;94933.84;;;6.74;100.00
11487;BME280;10510;47.942;9.442;2023-12-28T10:14:23;94925.75;;;6.77;100.00
11487;BME280;10510;47.942;9.442;2023-12-28T10:16:23;94935.03;;;6.80;100.00
11487;BME280;10510;47.942;9.442;2023-12-28T10:18:23;94927.06;;;6.81;100.00
11487;BME280;10510;47.942;9.442;2023-12-28T10:20:26;94912.28;;;6.82;100.00
11487;BME280;10510;47.942;9.442;2023-12-28T10:22:27;94910.34;;;6.84;100.00
11487;BME280;10510;47.942;9.442;2023-12-28T10:24:27;94923.53;;;6.82;100.00
11487;BME280;10510;47.942;9.442;2023-12-28T10:26:27;94920.91;;;6.82;100.00
11487;BME280;10510;47.942;9.442;2023-12-28T10:28:31;94919.78;;;6.85;100.00
11487;BME280;10510;47.942;9.442;2023-12-28T10:30:31;94911.84;;;6.87;100.00
11487;BME280;10510;47.942;9.442;2023-12-28T10:32:32;94909.25;;;6.87;100.00
11487;BME280;10510;47.942;9.442;2023-12-28T10:34:32;94906.78;;;6.85;100.00
11487;BME280;10510;47.942;9.442;2023-12-28T10:36:33;94916.38;;;6.85;100.00
11487;BME280;10510;47.942;9.442;2023-12-28T10:38:37;94916.53;;;6.83;100.00